createdAt,value
2017-01-19T00:00:36.400Z,63.04
2017-01-19T00:01:45.381Z,63.42
2017-01-19T00:02:54.362Z,63.7
2017-01-19T00:04:08.212Z,63.89
2017-01-19T00:05:27.187Z,63.42
2017-01-19T00:06:46.255Z,63.13
2017-01-19T00:08:02.372Z,63.13
2017-01-19T00:09:24.862Z,63.23
2017-01-19T00:10:43.381Z,63.13
2017-01-19T00:12:00.239Z,63.13
2017-01-19T00:13:19.190Z,63.13
2017-01-19T00:14:37.999Z,63.32
2017-01-19T00:15:54.520Z,63.13
2017-01-19T00:17:15.703Z,62.75
2017-01-19T00:18:31.134Z,62.91
2017-01-19T00:19:50.844Z,62.72
2017-01-19T00:21:11.218Z,63.2
2017-01-19T00:22:28.479Z,63.39
2017-01-19T00:23:46.430Z,63.76
2017-01-19T00:25:05.462Z,63.57
2017-01-19T00:26:23.313Z,63.85
2017-01-19T00:27:46.776Z,63.95
2017-01-19T00:29:07.629Z,63.51
2017-01-19T00:30:26.985Z,63.39
2017-01-19T00:31:47.736Z,63.29
2017-01-19T00:33:08.465Z,63.6
2017-01-19T00:34:27.412Z,63.6
2017-01-19T00:35:48.863Z,63.7
2017-01-19T00:37:05.751Z,63.32
2017-01-19T00:38:20.249Z,62.85
2017-01-19T00:39:39.286Z,63.23
2017-01-19T00:40:59.478Z,63.04
2017-01-19T00:42:19.594Z,62.85
2017-01-19T00:43:43.019Z,62.85
2017-01-19T00:45:02.566Z,62.75
2017-01-19T00:46:21.291Z,62.85
2017-01-19T00:47:38.259Z,62.94
2017-01-19T00:48:47.449Z,62.85
2017-01-19T00:49:56.426Z,63.04
2017-01-19T00:51:06.149Z,62.47
2017-01-19T00:52:15.121Z,62.37
2017-01-19T00:53:24.335Z,62.37
2017-01-19T00:54:33.328Z,62.94
2017-01-19T00:55:42.304Z,62.94
2017-01-19T00:56:51.499Z,62.94
2017-01-19T00:58:00.477Z,62.94
2017-01-19T00:59:09.458Z,63.23
2017-01-19T01:00:18.437Z,62.85
2017-01-19T01:01:27.865Z,63.04
2017-01-19T01:02:36.873Z,62.85
2017-01-19T01:03:46.317Z,62.85
2017-01-19T01:04:55.575Z,62.75
2017-01-19T01:06:04.957Z,62.47
2017-01-19T01:07:13.942Z,62.47
2017-01-19T01:08:22.916Z,62.85
2017-01-19T01:09:31.897Z,63.04
2017-01-19T01:10:41.364Z,62.47
2017-01-19T01:11:50.345Z,62.09
2017-01-19T01:12:59.326Z,62.37
2017-01-19T01:14:08.405Z,62.37
2017-01-19T01:15:17.393Z,62.28
2017-01-19T01:16:26.371Z,62.37
2017-01-19T01:17:35.393Z,62.47
2017-01-19T01:18:45.301Z,62.37
2017-01-19T01:19:57.557Z,62.37
2017-01-19T01:21:06.906Z,62.09
2017-01-19T01:22:17.295Z,61.99
2017-01-19T01:23:26.272Z,62.09
2017-01-19T01:24:35.566Z,62.28
2017-01-19T01:25:45.012Z,62.37
2017-01-19T01:26:54.623Z,61.99
2017-01-19T01:28:04.293Z,62.28
2017-01-19T01:29:14.780Z,62.37
2017-01-19T01:30:26.430Z,62.28
2017-01-19T01:31:35.412Z,62.09
2017-01-19T01:32:44.387Z,62.15
2017-01-19T01:33:54.023Z,62.15
2017-01-19T01:35:02.998Z,62.09
2017-01-19T01:36:12.833Z,61.99
2017-01-19T01:37:22.085Z,62.37
2017-01-19T01:38:31.654Z,62.18
2017-01-19T01:39:40.664Z,62.18
2017-01-19T01:40:49.638Z,62.18
2017-01-19T01:41:59.283Z,62.18
2017-01-19T01:43:09.364Z,62.09
2017-01-19T01:44:20.209Z,61.71
2017-01-19T01:45:30.292Z,62.18
2017-01-19T01:46:39.282Z,62.28
2017-01-19T01:47:48.260Z,62.18
2017-01-19T01:48:57.245Z,62.28
2017-01-19T01:50:07.366Z,61.8
2017-01-19T01:51:17.415Z,62.37
2017-01-19T01:52:27.093Z,62.18
2017-01-19T01:53:36.429Z,62.18
2017-01-19T01:54:45.417Z,62.28
2017-01-19T01:55:55.671Z,62.28
2017-01-19T01:57:05.013Z,62.18
2017-01-19T01:58:14.849Z,61.8
2017-01-19T01:59:24.057Z,62.47
2017-01-19T02:00:33.036Z,62.09
2017-01-19T02:01:42.019Z,62.37
2017-01-19T02:02:51.667Z,62.18
2017-01-19T02:04:01.346Z,62.18
2017-01-19T02:05:10.973Z,62.15
2017-01-19T02:06:20.540Z,62.25
2017-01-19T02:07:29.664Z,62.34
2017-01-19T02:08:38.683Z,62.34
2017-01-19T02:09:48.322Z,61.77
2017-01-19T02:10:57.327Z,62.25
2017-01-19T02:12:06.307Z,62.06
2017-01-19T02:13:15.286Z,62.06
2017-01-19T02:14:24.271Z,62.34
2017-01-19T02:15:33.986Z,62.44
2017-01-19T02:16:43.676Z,62.15
2017-01-19T02:17:53.345Z,62.06
2017-01-19T02:19:02.320Z,62.34
2017-01-19T02:20:11.314Z,62.82
2017-01-19T02:21:20.291Z,62.91
2017-01-19T02:22:29.268Z,62.91
2017-01-19T02:23:38.248Z,63.1
2017-01-19T02:24:48.035Z,63.1
2017-01-19T02:25:57.019Z,62.91
2017-01-19T02:27:05.999Z,63.1
2017-01-19T02:28:16.777Z,61.87
2017-01-19T02:29:28.820Z,62.25
2017-01-19T02:30:37.805Z,62.44
2017-01-19T02:31:47.513Z,62.34
2017-01-19T02:32:56.498Z,63.2
2017-01-19T02:34:05.474Z,62.72
2017-01-19T02:35:15.527Z,62.91
2017-01-19T02:36:24.865Z,62.91
2017-01-19T02:37:34.673Z,63.01
2017-01-19T02:38:43.651Z,63.2
2017-01-19T02:39:53.225Z,63.29
2017-01-19T02:41:03.435Z,63.29
2017-01-19T02:42:12.434Z,63.1
2017-01-19T02:43:21.412Z,62.91
2017-01-19T02:44:31.281Z,62.34
2017-01-19T02:45:40.612Z,62.15
2017-01-19T02:46:50.826Z,62.53
2017-01-19T02:48:00.894Z,63.1
2017-01-19T02:49:10.132Z,62.82
2017-01-19T02:50:19.654Z,62.91
2017-01-19T02:51:28.973Z,63.23
2017-01-19T02:52:37.956Z,62.72
2017-01-19T02:53:46.939Z,62.85
2017-01-19T02:54:56.292Z,63.04
2017-01-19T02:56:05.995Z,62.94
2017-01-19T02:57:15.785Z,62.37
2017-01-19T02:58:32.167Z,62.18
2017-01-19T02:59:45.979Z,62.37
2017-01-19T03:00:58.158Z,62.18
2017-01-19T03:02:09.872Z,61.71
2017-01-19T03:03:21.871Z,61.71
2017-01-19T03:04:37.630Z,61.71
2017-01-19T03:05:51.183Z,62.09
2017-01-19T03:07:05.786Z,61.9
2017-01-19T03:08:16.732Z,61.43
2017-01-19T03:09:30.813Z,61.43
2017-01-19T03:10:44.882Z,61.52
2017-01-19T03:11:57.867Z,61.61
2017-01-19T03:13:10.039Z,61.61
2017-01-19T03:14:22.931Z,61.43
2017-01-19T03:15:36.175Z,61.71
2017-01-19T03:16:48.649Z,60.96
2017-01-19T03:17:57.626Z,60.96
2017-01-19T03:19:06.609Z,60.77
2017-01-19T03:20:15.601Z,60.96
2017-01-19T03:21:24.571Z,61.15
2017-01-19T03:22:33.556Z,60.86
2017-01-19T03:23:42.536Z,61.24
2017-01-19T03:24:51.515Z,60.86
2017-01-19T03:26:00.500Z,61.43
2017-01-19T03:27:09.479Z,61.61
2017-01-19T03:28:18.483Z,61.24
2017-01-19T03:29:27.465Z,60.77
2017-01-19T03:30:36.451Z,60.86
2017-01-19T03:31:45.428Z,60.83
2017-01-19T03:32:54.409Z,61.4
2017-01-19T03:34:03.386Z,62.06
2017-01-19T03:35:12.365Z,61.87
2017-01-19T03:36:21.341Z,62.15
2017-01-19T03:37:30.347Z,62.15
2017-01-19T03:38:39.327Z,62.15
2017-01-19T03:39:48.304Z,62.15
2017-01-19T03:40:57.280Z,62.25
2017-01-19T03:42:06.266Z,62.09
2017-01-19T03:43:15.241Z,62.09
2017-01-19T03:44:24.270Z,62.37
2017-01-19T03:45:33.251Z,62.15
2017-01-19T03:46:42.232Z,62.06
2017-01-19T03:47:51.209Z,62.34
2017-01-19T03:49:00.186Z,62.18
2017-01-19T03:50:09.161Z,62.15
2017-01-19T03:51:18.143Z,62.37
2017-01-19T03:52:27.118Z,62.09
2017-01-19T03:53:36.106Z,61.8
2017-01-19T03:54:45.088Z,62.09
2017-01-19T03:55:54.063Z,62.47
2017-01-19T03:57:03.044Z,61.71
2017-01-19T03:58:12.028Z,61.8
2017-01-19T03:59:21.009Z,61.58
2017-01-19T04:00:30.014Z,62.06
2017-01-19T04:01:39.013Z,61.9
2017-01-19T04:02:47.993Z,62.18
2017-01-19T04:03:56.970Z,62.18
2017-01-19T04:05:05.980Z,61.61
2017-01-19T04:06:14.959Z,61.71
2017-01-19T04:07:23.938Z,61.8
2017-01-19T04:08:32.919Z,61.9
2017-01-19T04:09:41.898Z,62.28
2017-01-19T04:10:50.881Z,61.61
2017-01-19T04:11:59.861Z,61.61
2017-01-19T04:13:08.837Z,61.52
2017-01-19T04:14:17.814Z,61.8
2017-01-19T04:15:26.793Z,61.71
2017-01-19T04:16:35.780Z,61.99
2017-01-19T04:17:44.771Z,61.99
2017-01-19T04:18:53.746Z,61.52
2017-01-19T04:20:02.729Z,61.33
2017-01-19T04:21:11.709Z,61.71
2017-01-19T04:22:20.690Z,61.9
2017-01-19T04:23:29.670Z,61.52
2017-01-19T04:24:38.647Z,61.4
2017-01-19T04:25:47.627Z,61.4
2017-01-19T04:26:56.608Z,61.21
2017-01-19T04:28:05.589Z,61.87
2017-01-19T04:29:14.576Z,61.49
2017-01-19T04:30:23.552Z,62.15
2017-01-19T04:31:32.538Z,62.15
2017-01-19T04:32:41.528Z,62.34
2017-01-19T04:33:50.513Z,62.34
2017-01-19T04:34:59.521Z,62.25
2017-01-19T04:36:08.501Z,62.15
2017-01-19T04:37:17.480Z,62.18
2017-01-19T04:38:26.457Z,62.28
2017-01-19T04:39:35.438Z,62.18
2017-01-19T04:40:44.418Z,62.18
2017-01-19T04:41:53.429Z,62.37
2017-01-19T04:43:02.405Z,61.8
2017-01-19T04:44:11.383Z,61.71
2017-01-19T04:45:20.365Z,61.9
2017-01-19T04:46:29.343Z,61.61
2017-01-19T04:47:38.319Z,61.43
2017-01-19T04:48:47.303Z,62.18
2017-01-19T04:49:56.288Z,61.9
2017-01-19T04:51:05.271Z,62.09
2017-01-19T04:52:14.247Z,61.9
2017-01-19T04:53:23.233Z,61.8
2017-01-19T04:54:32.215Z,61.9
2017-01-19T04:55:41.198Z,61.8
2017-01-19T04:56:50.175Z,61.9
2017-01-19T04:57:59.158Z,61.24
2017-01-19T04:59:08.189Z,61.3
2017-01-19T05:00:17.169Z,61.33
2017-01-19T05:01:26.147Z,61.8
2017-01-19T05:02:35.132Z,61.61
2017-01-19T05:03:44.108Z,61.8
2017-01-19T05:04:53.085Z,60.86
2017-01-19T05:06:02.058Z,61.49
2017-01-19T05:07:11.039Z,61.3
2017-01-19T05:08:20.021Z,61.96
2017-01-19T05:09:29.001Z,61.77
2017-01-19T05:10:37.982Z,61.96
2017-01-19T05:11:46.961Z,61.68
2017-01-19T05:12:55.938Z,61.77
2017-01-19T05:14:04.917Z,61.77
2017-01-19T05:15:13.892Z,61.58
2017-01-19T05:16:22.872Z,61.87
2017-01-19T05:17:31.850Z,61.9
2017-01-19T05:18:40.853Z,61.99
2017-01-19T05:19:49.833Z,61.61
2017-01-19T05:20:58.811Z,61.96
2017-01-19T05:22:07.792Z,61.77
2017-01-19T05:23:16.785Z,61.87
2017-01-19T05:24:25.769Z,62.15
2017-01-19T05:25:35.168Z,62.34
2017-01-19T05:26:44.148Z,62.15
2017-01-19T05:27:53.137Z,62.15
2017-01-19T05:29:02.116Z,62.34
2017-01-19T05:30:11.092Z,62.25
2017-01-19T05:31:20.069Z,62.34
2017-01-19T05:32:29.047Z,62.44
2017-01-19T05:33:38.027Z,63.01
2017-01-19T05:34:47.005Z,62.72
2017-01-19T05:35:55.998Z,63.2
2017-01-19T05:37:04.979Z,63.29
2017-01-19T05:38:13.956Z,63.29
2017-01-19T05:39:22.934Z,63.1
2017-01-19T05:40:31.919Z,63.1
2017-01-19T05:41:40.894Z,63.29
2017-01-19T05:42:49.883Z,63.1
2017-01-19T05:43:58.861Z,63.1
2017-01-19T05:45:07.844Z,63.29
2017-01-19T05:46:16.825Z,63.1
2017-01-19T05:47:25.804Z,63.1
2017-01-19T05:48:34.810Z,63.2
2017-01-19T05:49:43.795Z,62.72
2017-01-19T05:50:52.777Z,62.72
2017-01-19T05:52:01.756Z,62.72
2017-01-19T05:53:10.735Z,62.91
2017-01-19T05:54:19.717Z,62.63
2017-01-19T05:55:28.698Z,62.91
2017-01-19T05:56:37.671Z,62.91
2017-01-19T05:57:46.646Z,62.53
2017-01-19T05:58:55.628Z,63.01
2017-01-19T06:00:04.605Z,62.63
2017-01-19T06:01:13.611Z,62.53
2017-01-19T06:02:22.588Z,62.91
2017-01-19T06:03:31.564Z,63.01
2017-01-19T06:04:40.541Z,63.1
2017-01-19T06:05:49.524Z,62.15
2017-01-19T06:06:58.501Z,62.25
2017-01-19T06:08:07.480Z,62.34
2017-01-19T06:09:16.453Z,61.96
2017-01-19T06:10:25.431Z,62.15
2017-01-19T06:11:34.409Z,62.15
2017-01-19T06:12:43.395Z,62.15
2017-01-19T06:13:52.373Z,62.34
2017-01-19T06:15:01.352Z,62.18
2017-01-19T06:16:10.333Z,62.37
2017-01-19T06:17:19.337Z,62.25
2017-01-19T06:18:28.320Z,62.25
2017-01-19T06:19:37.298Z,62.06
2017-01-19T06:20:46.287Z,62.34
2017-01-19T06:21:55.267Z,62.25
2017-01-19T06:23:04.249Z,61.87
2017-01-19T06:24:13.227Z,61.77
2017-01-19T06:25:22.208Z,61.77
2017-01-19T06:26:31.186Z,61.77
2017-01-19T06:27:40.167Z,61.87
2017-01-19T06:28:49.153Z,62.06
2017-01-19T06:29:58.130Z,61.68
2017-01-19T06:31:07.105Z,62.15
2017-01-19T06:32:16.083Z,62.34
2017-01-19T06:33:25.060Z,62.34
2017-01-19T06:34:34.041Z,62.06
2017-01-19T06:35:43.024Z,62.06
2017-01-19T06:36:52.013Z,62.44
2017-01-19T06:38:00.998Z,62.25
2017-01-19T06:39:09.979Z,62.63
2017-01-19T06:40:18.962Z,63.1
2017-01-19T06:41:27.941Z,62.34
2017-01-19T06:42:36.923Z,61.96
2017-01-19T06:43:45.903Z,62.44
2017-01-19T06:44:54.881Z,62.34
2017-01-19T06:46:03.862Z,62.44
2017-01-19T06:47:12.852Z,62.25
2017-01-19T06:48:21.828Z,62.44
2017-01-19T06:49:30.810Z,62.34
2017-01-19T06:50:39.792Z,62.44
2017-01-19T06:51:48.771Z,63.01
2017-01-19T06:52:57.752Z,63.1
2017-01-19T06:54:06.735Z,63.1
2017-01-19T06:55:15.712Z,62.53
2017-01-19T06:56:24.693Z,62.34
2017-01-19T06:57:33.671Z,62.15
2017-01-19T06:58:42.649Z,62.82
2017-01-19T06:59:51.627Z,63.1
2017-01-19T07:01:00.611Z,63.1
2017-01-19T07:02:09.589Z,63.29
2017-01-19T07:03:18.567Z,63.2
2017-01-19T07:04:27.555Z,62.82
2017-01-19T07:05:36.532Z,63.01
2017-01-19T07:06:45.513Z,62.44
2017-01-19T07:07:54.495Z,62.15
2017-01-19T07:09:03.475Z,62.06
2017-01-19T07:10:12.451Z,61.87
2017-01-19T07:11:21.429Z,62.15
2017-01-19T07:12:30.407Z,62.34
2017-01-19T07:13:39.384Z,62.15
2017-01-19T07:14:48.367Z,61.96
2017-01-19T07:15:57.351Z,62.15
2017-01-19T07:17:06.334Z,62.15
2017-01-19T07:18:15.311Z,62.18
2017-01-19T07:19:24.290Z,61.8
2017-01-19T07:20:33.267Z,61.8
2017-01-19T07:21:42.253Z,61.52
2017-01-19T07:22:51.235Z,61.68
2017-01-19T07:24:00.214Z,61.77
2017-01-19T07:25:09.188Z,61.77
2017-01-19T07:26:18.166Z,62.15
2017-01-19T07:27:27.142Z,61.68
2017-01-19T07:28:36.116Z,61.87
2017-01-19T07:29:45.097Z,62.06
2017-01-19T07:30:54.074Z,62.34
2017-01-19T07:32:03.053Z,61.77
2017-01-19T07:33:12.029Z,61.87
2017-01-19T07:34:21.023Z,61.68
2017-01-19T07:35:30.005Z,61.77
2017-01-19T07:36:38.986Z,61.87
2017-01-19T07:37:47.962Z,61.87
2017-01-19T07:38:56.940Z,61.58
2017-01-19T07:40:05.919Z,60.77
2017-01-19T07:41:14.898Z,60.74
2017-01-19T07:42:23.891Z,61.3
2017-01-19T07:43:32.872Z,61.21
2017-01-19T07:44:41.849Z,61.3
2017-01-19T07:45:50.829Z,61.71
2017-01-19T07:46:59.808Z,61.33
2017-01-19T07:48:08.781Z,61.52
2017-01-19T07:49:17.761Z,61.24
2017-01-19T07:50:26.744Z,61.52
2017-01-19T07:51:35.743Z,61.24
2017-01-19T07:52:44.726Z,60.77
2017-01-19T07:53:53.705Z,60.67
2017-01-19T07:55:02.691Z,60.29
2017-01-19T07:56:11.672Z,60.86
2017-01-19T07:57:20.654Z,60.86
2017-01-19T07:58:29.639Z,61.24
2017-01-19T07:59:38.624Z,60.96
2017-01-19T08:00:47.606Z,60.77
2017-01-19T08:01:56.584Z,60.58
2017-01-19T08:03:05.568Z,60.86
2017-01-19T08:04:14.573Z,60
2017-01-19T08:05:23.554Z,60
2017-01-19T08:06:32.529Z,60.67
2017-01-19T08:07:41.509Z,60.19
2017-01-19T08:08:50.492Z,60.38
2017-01-19T08:09:59.472Z,60.38
2017-01-19T08:11:08.461Z,60.58
2017-01-19T08:12:17.443Z,60.29
2017-01-19T08:13:26.432Z,60.29
2017-01-19T08:14:35.413Z,60.29
2017-01-19T08:15:44.389Z,60.29
2017-01-19T08:16:53.365Z,60.19
2017-01-19T08:18:02.344Z,59.91
2017-01-19T08:19:11.328Z,60.1
2017-01-19T08:20:20.311Z,59.91
2017-01-19T08:21:29.315Z,59.44
2017-01-19T08:22:38.291Z,59.25
2017-01-19T08:23:47.269Z,59.44
2017-01-19T08:24:56.247Z,59.34
2017-01-19T08:26:05.234Z,59.25
2017-01-19T08:27:14.216Z,59.25
2017-01-19T08:28:23.193Z,58.78
2017-01-19T08:29:32.169Z,58.59
2017-01-19T08:30:41.151Z,58.97
2017-01-19T08:31:50.130Z,58.49
2017-01-19T08:32:59.108Z,58.78
2017-01-19T08:34:08.088Z,59.06
2017-01-19T08:35:17.070Z,58.87
2017-01-19T08:36:26.055Z,59.25
2017-01-19T08:37:35.038Z,59.25
2017-01-19T08:38:44.021Z,59.25
2017-01-19T08:39:52.998Z,59.06
2017-01-19T08:41:01.984Z,59.16
2017-01-19T08:42:10.966Z,58.97
2017-01-19T08:43:19.956Z,58.78
2017-01-19T08:44:28.938Z,58.78
2017-01-19T08:45:37.919Z,58.78
2017-01-19T08:46:46.900Z,58.78
2017-01-19T08:47:55.881Z,58.78
2017-01-19T08:49:04.864Z,58.68
2017-01-19T08:50:13.847Z,58.87
2017-01-19T08:51:22.830Z,58.59
2017-01-19T08:52:31.809Z,59.06
2017-01-19T08:53:40.787Z,59.09
2017-01-19T08:54:49.768Z,58.81
2017-01-19T08:55:58.752Z,58.62
2017-01-19T08:57:07.734Z,58.71
2017-01-19T08:58:16.717Z,58.87
2017-01-19T08:59:25.696Z,58.68
2017-01-19T09:00:34.681Z,58.62
2017-01-19T09:01:43.658Z,58.3
2017-01-19T09:02:52.639Z,58.11
2017-01-19T09:04:01.625Z,58.4
2017-01-19T09:05:10.607Z,58.49
2017-01-19T09:06:19.593Z,58.49
2017-01-19T09:07:28.571Z,58.59
2017-01-19T09:08:37.550Z,58.49
2017-01-19T09:09:46.531Z,58.49
2017-01-19T09:10:55.518Z,58.68
2017-01-19T09:12:04.538Z,58.71
2017-01-19T09:13:13.584Z,58.59
2017-01-19T09:14:22.728Z,58.52
2017-01-19T09:15:32.098Z,58.33
2017-01-19T09:16:41.606Z,57.67
2017-01-19T09:17:51.248Z,57.92
2017-01-19T09:19:01.236Z,58.02
2017-01-19T09:20:11.222Z,57.73
2017-01-19T09:21:20.554Z,58.49
2017-01-19T09:22:30.815Z,58.97
2017-01-19T09:23:40.183Z,58.87
2017-01-19T09:24:49.538Z,58.97
2017-01-19T09:25:58.822Z,59.44
2017-01-19T09:27:07.901Z,59.06
2017-01-19T09:28:17.053Z,59.63
2017-01-19T09:29:26.484Z,59.44
2017-01-19T09:30:35.738Z,59.06
2017-01-19T09:31:45.022Z,59.16
2017-01-19T09:32:54.967Z,59.16
2017-01-19T09:34:04.223Z,59.16
2017-01-19T09:35:13.394Z,59.25
2017-01-19T09:36:22.700Z,58.87
2017-01-19T09:37:33.223Z,58.68
2017-01-19T09:38:42.966Z,58.49
2017-01-19T09:39:52.288Z,58.87
2017-01-19T09:41:02.355Z,59.16
2017-01-19T09:42:12.003Z,59.06
2017-01-19T09:43:21.294Z,59.16
2017-01-19T09:44:31.077Z,58.87
2017-01-19T09:45:40.214Z,58.87
2017-01-19T09:46:49.570Z,58.97
2017-01-19T09:47:59.133Z,59.53
2017-01-19T09:49:09.217Z,59.06
2017-01-19T09:50:18.359Z,58.87
2017-01-19T09:51:27.694Z,59.25
2017-01-19T09:52:37.049Z,58.97
2017-01-19T09:53:47.026Z,59.06
2017-01-19T09:54:56.670Z,58.78
2017-01-19T09:56:06.166Z,58.97
2017-01-19T09:57:15.586Z,58.59
2017-01-19T09:58:24.907Z,58.49
2017-01-19T09:59:34.332Z,58.97
2017-01-19T10:00:43.487Z,58.68
2017-01-19T10:01:52.862Z,58.87
2017-01-19T10:03:02.329Z,58.87
2017-01-19T10:04:11.719Z,58.68
2017-01-19T10:05:20.908Z,58.68
2017-01-19T10:06:30.081Z,58.97
2017-01-19T10:07:39.912Z,58.97
2017-01-19T10:08:49.650Z,58.68
2017-01-19T10:09:58.899Z,58.59
2017-01-19T10:11:08.413Z,58.52
2017-01-19T10:12:18.072Z,58.24
2017-01-19T10:13:28.125Z,57.95
2017-01-19T10:14:38.756Z,57.57
2017-01-19T10:15:48.353Z,57.86
2017-01-19T10:16:57.626Z,57.86
2017-01-19T10:18:06.903Z,57.57
2017-01-19T10:19:16.524Z,57.1
2017-01-19T10:20:25.805Z,57.29
2017-01-19T10:21:35.127Z,57.29
2017-01-19T10:22:44.498Z,57.29
2017-01-19T10:23:53.807Z,57.01
2017-01-19T10:25:03.066Z,57.29
2017-01-19T10:26:12.218Z,57.29
2017-01-19T10:27:22.205Z,57.1
2017-01-19T10:28:31.350Z,56.34
2017-01-19T10:29:40.452Z,56.53
2017-01-19T10:30:49.622Z,56.82
2017-01-19T10:31:58.921Z,56.06
2017-01-19T10:33:08.459Z,56.44
2017-01-19T10:34:18.057Z,56.53
2017-01-19T10:35:27.187Z,56.06
2017-01-19T10:36:36.511Z,56.25
2017-01-19T10:37:45.664Z,56.34
2017-01-19T10:38:55.279Z,55.96
2017-01-19T10:40:04.868Z,55.87
2017-01-19T10:41:13.924Z,55.58
2017-01-19T10:42:23.103Z,55.77
2017-01-19T10:43:33.487Z,55.96
2017-01-19T10:44:42.728Z,56.34
2017-01-19T10:45:51.790Z,56.25
2017-01-19T10:47:00.947Z,56.25
2017-01-19T10:48:10.085Z,56.25
2017-01-19T10:49:19.207Z,56.66
2017-01-19T10:50:28.502Z,56.46
2017-01-19T10:51:37.770Z,56.27
2017-01-19T10:52:46.855Z,55.9
2017-01-19T10:53:55.891Z,55.71
2017-01-19T10:55:05.021Z,55.9
2017-01-19T10:56:14.269Z,55.71
2017-01-19T10:57:23.245Z,55.71
2017-01-19T10:58:32.226Z,55.99
2017-01-19T10:59:41.211Z,55.14
2017-01-19T11:00:50.196Z,54.76
2017-01-19T11:01:59.177Z,54.86
2017-01-19T11:03:08.306Z,54.86
2017-01-19T11:04:17.657Z,54.28
2017-01-19T11:05:27.085Z,54.19
2017-01-19T11:06:36.504Z,54.28
2017-01-19T11:07:46.230Z,54.19
2017-01-19T11:08:55.218Z,54.1
2017-01-19T11:10:04.386Z,54.74
2017-01-19T11:11:13.714Z,54.45
2017-01-19T11:12:23.140Z,54.83
2017-01-19T11:13:33.105Z,54.93
2017-01-19T11:14:42.458Z,55.21
2017-01-19T11:15:51.435Z,55.4
2017-01-19T11:17:00.413Z,55.4
2017-01-19T11:18:09.779Z,55.3
2017-01-19T11:19:19.255Z,55.4
2017-01-19T11:20:28.670Z,55.52
2017-01-19T11:21:37.650Z,55.24
2017-01-19T11:22:46.638Z,54.57
2017-01-19T11:23:57.301Z,54
2017-01-19T11:25:08.696Z,54.38
2017-01-19T11:26:19.624Z,54.86
2017-01-19T11:27:28.602Z,54.28
2017-01-19T11:28:37.584Z,54.28
2017-01-19T11:29:46.985Z,54.67
2017-01-19T11:30:56.379Z,54.76
2017-01-19T11:32:05.352Z,54.67
2017-01-19T11:33:15.007Z,54.38
2017-01-19T11:34:24.774Z,53.91
2017-01-19T11:35:33.747Z,53.91
2017-01-19T11:36:42.894Z,53.91
2017-01-19T11:37:51.946Z,53.72
2017-01-19T11:39:01.466Z,53.63
2017-01-19T11:40:10.727Z,54.1
2017-01-19T11:41:19.685Z,54
2017-01-19T11:42:28.640Z,54.38
2017-01-19T11:43:37.591Z,54.19
2017-01-19T11:44:46.548Z,53.81
2017-01-19T11:45:55.507Z,54
2017-01-19T11:47:04.466Z,53.44
2017-01-19T11:48:13.420Z,53.44
2017-01-19T11:49:22.374Z,53.91
2017-01-19T11:50:31.327Z,53.44
2017-01-19T11:51:40.369Z,53.53
2017-01-19T11:52:49.416Z,53.34
2017-01-19T11:53:58.464Z,53.15
2017-01-19T11:55:07.439Z,53.53
2017-01-19T11:56:16.395Z,53.53
2017-01-19T11:57:25.351Z,53.53
2017-01-19T11:58:34.301Z,53.72
2017-01-19T11:59:43.288Z,53.72
2017-01-19T12:00:52.254Z,53.44
2017-01-19T12:02:01.209Z,53.72
2017-01-19T12:03:10.169Z,53.81
2017-01-19T12:04:19.120Z,53.44
2017-01-19T12:05:28.076Z,52.96
2017-01-19T12:06:37.033Z,53.44
2017-01-19T12:07:46.080Z,53.44
2017-01-19T12:08:55.036Z,53.25
2017-01-19T12:10:03.988Z,53.81
2017-01-19T12:11:12.942Z,53.91
2017-01-19T12:12:21.892Z,53.15
2017-01-19T12:13:30.850Z,53.53
2017-01-19T12:14:39.806Z,53.25
2017-01-19T12:15:48.767Z,53.53
2017-01-19T12:16:57.722Z,53.25
2017-01-19T12:18:06.676Z,53.25
2017-01-19T12:19:15.630Z,52.96
2017-01-19T12:20:24.584Z,52.48
2017-01-19T12:21:33.538Z,52.48
2017-01-19T12:22:42.497Z,52.77
2017-01-19T12:23:51.548Z,53.25
2017-01-19T12:25:00.495Z,53.44
2017-01-19T12:26:09.454Z,53.72
2017-01-19T12:27:18.407Z,53.25
2017-01-19T12:28:27.353Z,53.06
2017-01-19T12:29:36.312Z,52.68
2017-01-19T12:30:45.262Z,52.87
2017-01-19T12:31:54.211Z,52.87
2017-01-19T12:33:03.163Z,52.58
2017-01-19T12:34:12.116Z,52.68
2017-01-19T12:35:21.069Z,52.87
2017-01-19T12:36:30.023Z,52.48
2017-01-19T12:37:38.975Z,53.25
2017-01-19T12:38:47.923Z,53.25
2017-01-19T12:39:56.871Z,53.25
2017-01-19T12:41:05.827Z,53.34
2017-01-19T12:42:14.785Z,52.89
2017-01-19T12:43:23.745Z,52.8
2017-01-19T12:44:32.698Z,52.77
2017-01-19T12:45:41.653Z,52.51
2017-01-19T12:46:50.608Z,52.42
2017-01-19T12:47:59.560Z,52.42
2017-01-19T12:49:08.519Z,52.61
2017-01-19T12:50:17.477Z,52.7
2017-01-19T12:51:26.431Z,52.61
2017-01-19T12:52:35.405Z,52.51
2017-01-19T12:53:44.358Z,52.23
2017-01-19T12:54:53.319Z,52.8
2017-01-19T12:56:02.276Z,52.61
2017-01-19T12:57:11.232Z,52.61
2017-01-19T12:58:20.194Z,52.33
2017-01-19T12:59:29.148Z,52.61
2017-01-19T13:00:38.098Z,52.51
2017-01-19T13:01:47.052Z,52.33
2017-01-19T13:02:56.009Z,52.51
2017-01-19T13:04:04.999Z,52.23
2017-01-19T13:05:13.956Z,52.04
2017-01-19T13:06:22.905Z,52.23
2017-01-19T13:07:31.862Z,52.14
2017-01-19T13:08:40.875Z,52.04
2017-01-19T13:09:49.840Z,52.04
2017-01-19T13:10:59.204Z,51.85
2017-01-19T13:12:08.159Z,51.85
2017-01-19T13:13:17.116Z,52.04
2017-01-19T13:14:26.066Z,51.95
2017-01-19T13:15:35.025Z,51.95
2017-01-19T13:16:43.978Z,51.95
2017-01-19T13:17:52.940Z,51.95
2017-01-19T13:19:01.894Z,51.95
2017-01-19T13:20:10.849Z,51.95
2017-01-19T13:21:19.800Z,51.57
2017-01-19T13:22:29.431Z,51.47
2017-01-19T13:23:38.389Z,51.76
2017-01-19T13:24:47.347Z,51.57
2017-01-19T13:25:56.753Z,51.76
2017-01-19T13:27:05.715Z,51.76
2017-01-19T13:28:15.992Z,51.66
2017-01-19T13:29:28.240Z,51.95
2017-01-19T13:30:38.655Z,51.76
2017-01-19T13:31:48.311Z,51.66
2017-01-19T13:32:59.208Z,50.9
2017-01-19T13:34:08.783Z,51.28
2017-01-19T13:35:18.067Z,50.9
2017-01-19T13:36:27.039Z,51.18
2017-01-19T13:37:36.471Z,51.09
2017-01-19T13:38:45.433Z,51.09
2017-01-19T13:39:54.382Z,50.62
2017-01-19T13:41:03.334Z,50.99
2017-01-19T13:42:12.289Z,51.09
2017-01-19T13:43:21.329Z,50.99
2017-01-19T13:44:30.292Z,50.81
2017-01-19T13:45:39.276Z,50.78
2017-01-19T13:46:48.483Z,51.28
2017-01-19T13:47:58.325Z,50.88
2017-01-19T13:49:10.184Z,51.18
2017-01-19T13:50:22.414Z,50.9
2017-01-19T13:51:31.364Z,50.9
2017-01-19T13:52:40.317Z,51.07
2017-01-19T13:53:49.365Z,51.26
2017-01-19T13:54:58.319Z,51.73
2017-01-19T13:56:07.290Z,51.66
2017-01-19T13:57:16.253Z,51.45
2017-01-19T13:58:25.203Z,51.47
2017-01-19T13:59:34.186Z,51.47
2017-01-19T14:00:43.227Z,52.14
2017-01-19T14:01:52.186Z,52.29
2017-01-19T14:03:01.134Z,52.87
2017-01-19T14:04:10.085Z,52.8
2017-01-19T14:05:19.043Z,53.18
2017-01-19T14:06:29.372Z,53.18
2017-01-19T14:07:38.655Z,53.08
2017-01-19T14:08:47.611Z,53.37
2017-01-19T14:09:56.570Z,53.75
2017-01-19T14:11:05.522Z,53.56
2017-01-19T14:12:14.474Z,53.94
2017-01-19T14:13:23.446Z,54.22
2017-01-19T14:14:32.490Z,53.56
2017-01-19T14:15:41.467Z,53.56
2017-01-19T14:16:50.513Z,52.98
2017-01-19T14:17:59.553Z,53.18
2017-01-19T14:19:08.512Z,53.27
2017-01-19T14:20:17.476Z,53.56
2017-01-19T14:21:26.433Z,53.37
2017-01-19T14:22:35.389Z,53.75
2017-01-19T14:23:44.353Z,53.27
2017-01-19T14:24:53.396Z,54.22
2017-01-19T14:26:02.350Z,53.56
2017-01-19T14:27:11.304Z,53.53
2017-01-19T14:28:20.259Z,54.13
2017-01-19T14:29:29.227Z,54.41
2017-01-19T14:30:38.182Z,53.65
2017-01-19T14:31:47.142Z,53.75
2017-01-19T14:32:56.100Z,53.53
2017-01-19T14:34:05.066Z,53.72
2017-01-19T14:35:14.021Z,54.1
2017-01-19T14:36:22.993Z,54.1
2017-01-19T14:37:31.953Z,54.38
2017-01-19T14:38:40.913Z,54.28
2017-01-19T14:39:49.868Z,54.76
2017-01-19T14:40:58.827Z,55.05
2017-01-19T14:42:07.788Z,54.86
2017-01-19T14:43:16.750Z,55.14
2017-01-19T14:44:25.703Z,55.71
2017-01-19T14:45:34.736Z,55.62
2017-01-19T14:46:43.695Z,56.46
2017-01-19T14:47:52.655Z,56.27
2017-01-19T14:49:01.608Z,56.66
2017-01-19T14:50:10.594Z,57.04
2017-01-19T14:51:19.587Z,56.75
2017-01-19T14:52:28.543Z,56.75
2017-01-19T14:53:37.496Z,57.32
2017-01-19T14:54:46.444Z,57.32
2017-01-19T14:55:55.404Z,57.32
2017-01-19T14:57:04.365Z,57.13
2017-01-19T14:58:13.331Z,56.75
2017-01-19T14:59:22.283Z,55.8
2017-01-19T15:00:31.330Z,55.99